Time;durP1;ratioP1;P1;durP2;ratioP2;P2;SDS_P1;SDS_P2;PMS_P1;PMS_P2;Temp;Humidity;BMP_temperature;BMP_pressure;BME280_temperature;BME280_humidity;BME280_pressure;Samples;Min_cycle;Max_cycle;Signal;HPM_P1;HPM_P2
2023/04/19 00:00:34;;;;;;;4.55;3.45;;;;;;;11.51;100.00;98996.78;5091372;28;20097;-73
2023/04/19 00:03:01;;;;;;;4.63;3.85;;;;;;;11.56;100.00;98989.31;5091750;28;20052;-73
2023/04/19 00:05:27;;;;;;;8.43;4.93;;;;;;;11.56;100.00;98983.72;5092036;28;20020;-73
2023/04/19 00:07:53;;;;;;;7.75;4.55;;;;;;;11.51;100.00;98985.56;5093216;28;20092;-73
2023/04/19 00:10:19;;;;;;;7.55;4.90;;;;;;;11.59;100.00;98975.44;5112340;28;20024;-73
2023/04/19 00:12:44;;;;;;;5.90;4.60;;;;;;;11.56;100.00;98981.72;5071655;28;1156785;-73
2023/04/19 00:15:10;;;;;;;5.80;4.57;;;;;;;11.64;100.00;98983.56;5094720;28;20098;-73
2023/04/19 00:17:36;;;;;;;6.85;4.10;;;;;;;11.63;100.00;98979.16;5111640;28;20027;-73
2023/04/19 00:20:03;;;;;;;9.88;5.05;;;;;;;11.58;100.00;98970.97;5112832;28;20500;-73
2023/04/19 00:22:28;;;;;;;6.78;4.53;;;;;;;11.54;100.00;98970.06;5112713;28;20028;-73
2023/04/19 00:24:54;;;;;;;7.22;5.40;;;;;;;11.43;100.00;98960.50;5112871;28;20076;-72
2023/04/19 00:27:20;;;;;;;7.00;4.50;;;;;;;11.44;100.00;98956.53;5112745;28;20046;-72
2023/04/19 00:29:45;;;;;;;7.38;4.68;;;;;;;11.42;100.00;98950.50;5111701;28;20027;-73
2023/04/19 00:32:12;;;;;;;6.93;4.47;;;;;;;11.37;100.00;98951.53;5078230;28;20031;-73
2023/04/19 00:34:37;;;;;;;8.30;4.38;;;;;;;11.23;100.00;98941.53;5085820;28;20032;-72
2023/04/19 00:37:05;;;;;;;5.57;3.83;;;;;;;11.18;100.00;98943.75;5094181;28;20032;-73
2023/04/19 00:39:31;;;;;;;5.93;3.58;;;;;;;11.07;100.00;98943.44;5112382;28;20054;-73
2023/04/19 00:41:56;;;;;;;4.78;3.40;;;;;;;11.14;100.00;98934.44;5112397;28;20043;-72
2023/04/19 00:44:22;;;;;;;4.30;3.20;;;;;;;11.02;100.00;98933.28;5112688;28;20027;-73
2023/04/19 00:46:48;;;;;;;3.55;3.08;;;;;;;11.01;100.00;98944.81;5093276;28;20102;-72
2023/04/19 00:49:15;;;;;;;3.72;2.90;;;;;;;10.84;100.00;98937.50;5102413;28;20012;-73
2023/04/19 00:51:41;;;;;;;4.03;3.30;;;;;;;10.77;100.00;98941.69;5112275;28;20436;-73
2023/04/19 00:54:07;;;;;;;4.20;3.00;;;;;;;10.88;100.00;98938.44;5112125;28;20518;-73
2023/04/19 00:56:34;;;;;;;4.63;3.10;;;;;;;10.87;100.00;98940.41;5103135;28;20063;-72
2023/04/19 00:59:00;;;;;;;3.47;2.53;;;;;;;10.92;100.00;98930.97;5092087;28;20073;-72
2023/04/19 01:01:25;;;;;;;3.30;2.22;;;;;;;10.87;100.00;98937.59;5092276;28;20024;-73
2023/04/19 01:03:51;;;;;;;2.70;2.30;;;;;;;10.81;100.00;98941.81;5086578;27;20088;-73
2023/04/19 01:06:17;;;;;;;4.68;3.00;;;;;;;10.86;100.00;98935.97;5091877;28;20584;-73
2023/04/19 01:08:42;;;;;;;3.50;2.92;;;;;;;10.92;100.00;98930.97;5106233;28;20042;-73
2023/04/19 01:11:08;;;;;;;2.92;2.63;;;;;;;10.99;100.00;98934.00;5111957;28;20019;-73
2023/04/19 01:13:33;;;;;;;2.90;2.60;;;;;;;11.03;100.00;98932.13;5111844;28;20020;-73
2023/04/19 01:15:59;;;;;;;4.45;2.80;;;;;;;10.99;100.00;98927.56;5093898;28;20062;-72
2023/04/19 01:18:28;;;;;;;2.95;2.60;;;;;;;10.99;100.00;98928.41;5106057;27;20023;-72
2023/04/19 01:20:53;;;;;;;2.47;2.03;;;;;;;11.01;100.00;98920.47;5110743;28;20020;-72
2023/04/19 01:23:19;;;;;;;2.72;2.38;;;;;;;11.03;100.00;98918.13;5092695;28;20153;-72
2023/04/19 01:25:45;;;;;;;3.25;2.78;;;;;;;11.00;100.00;98918.84;5097664;28;20482;-73
2023/04/19 01:28:10;;;;;;;4.70;2.85;;;;;;;11.01;100.00;98912.06;5093628;28;20027;-72
2023/04/19 01:30:36;;;;;;;2.45;2.20;;;;;;;11.15;100.00;98920.09;5112062;28;20026;-73
2023/04/19 01:33:02;;;;;;;3.17;2.10;;;;;;;11.19;100.00;98918.22;5103287;28;20027;-72
2023/04/19 01:35:29;;;;;;;3.17;2.70;;;;;;;11.16;100.00;98906.91;5110607;28;20028;-72
2023/04/19 01:37:55;;;;;;;2.83;2.50;;;;;;;11.08;100.00;98909.47;5093708;28;20023;-72
2023/04/19 01:40:24;;;;;;;3.33;2.45;;;;;;;11.07;100.00;98904.25;5093628;28;20020;-72
2023/04/19 01:42:50;;;;;;;2.37;2.10;;;;;;;11.08;100.00;98903.88;5111444;28;20011;-72
2023/04/19 01:45:16;;;;;;;2.30;2.03;;;;;;;11.12;100.00;98903.19;5111818;28;20492;-72
2023/04/19 01:47:42;;;;;;;2.60;2.40;;;;;;;11.09;100.00;98904.72;5109943;28;20034;-72
2023/04/19 01:50:08;;;;;;;4.53;1.90;;;;;;;11.13;100.00;98900.03;5111478;28;20028;-73
2023/04/19 01:52:33;;;;;;;2.08;1.88;;;;;;;11.08;100.00;98903.88;5110910;28;20027;-71
2023/04/19 01:54:59;;;;;;;3.88;1.92;;;;;;;11.06;100.00;98900.63;5093449;28;20050;-72
2023/04/19 01:57:24;;;;;;;3.67;2.20;;;;;;;11.09;100.00;98894.31;5111691;28;20028;-72
2023/04/19 01:59:50;;;;;;;3.58;1.80;;;;;;;11.17;99.73;98903.78;5110855;28;20024;-72
2023/04/19 02:02:15;;;;;;;2.88;2.42;;;;;;;11.20;99.66;98899.44;5103341;28;20448;-72
2023/04/19 02:04:41;;;;;;;2.53;1.95;;;;;;;11.16;99.07;98887.31;5101385;28;20028;-72
2023/04/19 02:07:06;;;;;;;2.78;2.20;;;;;;;11.20;99.44;98899.44;5093229;28;20019;-73
2023/04/19 02:09:36;;;;;;;2.55;2.22;;;;;;;11.15;99.45;98885.69;5110859;28;20023;-72
2023/04/19 02:12:02;;;;;;;2.00;1.73;;;;;;;11.24;99.04;98897.56;5091122;28;20526;-72
2023/04/19 02:14:27;;;;;;;3.40;2.10;;;;;;;11.24;98.55;98889.97;5091013;28;20032;-72
2023/04/19 02:16:53;;;;;;;3.22;2.55;;;;;;;11.26;98.75;98892.44;5096708;28;20031;-72
2023/04/19 02:19:18;;;;;;;2.65;1.77;;;;;;;11.18;98.80;98894.22;5111420;28;20114;-72
2023/04/19 02:21:44;;;;;;;2.63;2.25;;;;;;;11.15;99.02;98889.28;5092651;28;20028;-72
2023/04/19 02:24:09;;;;;;;4.00;2.17;;;;;;;11.15;99.08;98888.50;5111652;28;20052;-72
2023/04/19 02:26:35;;;;;;;2.65;2.40;;;;;;;11.04;99.27;98891.78;5093254;28;20019;-72
2023/04/19 02:29:00;;;;;;;3.50;2.22;;;;;;;10.97;98.93;98890.75;5092587;28;20035;-72
2023/04/19 02:31:26;;;;;;;2.97;2.53;;;;;;;10.72;100.00;98877.56;5094739;28;20533;-72
2023/04/19 02:33:51;;;;;;;2.38;2.17;;;;;;;10.88;100.00;98880.47;5114336;28;20471;-72
2023/04/19 02:36:17;;;;;;;2.47;2.17;;;;;;;10.76;100.00;98878.53;5112197;27;20564;-72
2023/04/19 02:38:42;;;;;;;5.00;2.45;;;;;;;10.62;100.00;98866.88;5096755;28;20020;-72
2023/04/19 02:41:08;;;;;;;3.20;2.45;;;;;;;10.72;100.00;98874.78;5114882;28;20485;-72
2023/04/19 02:43:33;;;;;;;3.03;2.15;;;;;;;10.57;100.00;98867.94;5106713;28;20023;-72
2023/04/19 02:45:59;;;;;;;3.97;2.30;;;;;;;10.52;100.00;98865.34;5093027;28;20042;-72
2023/04/19 02:48:24;;;;;;;3.60;2.60;;;;;;;10.59;100.00;98865.59;5114872;28;20424;-72
2023/04/19 02:50:50;;;;;;;5.55;2.63;;;;;;;10.50;100.00;98868.53;5100119;28;20032;-72
2023/04/19 02:53:15;;;;;;;2.95;2.63;;;;;;;10.60;100.00;98856.03;5111346;28;20028;-72
2023/04/19 02:55:41;;;;;;;4.82;2.63;;;;;;;10.65;100.00;98863.38;5114803;28;20024;-72
2023/04/19 02:58:07;;;;;;;4.53;2.58;;;;;;;10.75;100.00;98862.09;5114828;28;20030;-72
2023/04/19 03:00:32;;;;;;;2.65;2.45;;;;;;;10.68;100.00;98862.66;5095498;28;20523;-72
2023/04/19 03:02:58;;;;;;;2.97;2.53;;;;;;;10.65;100.00;98857.78;5096249;28;20024;-72
2023/04/19 03:05:23;;;;;;;5.60;2.72;;;;;;;10.65;100.00;98863.38;5113223;27;20026;-72
2023/04/19 03:07:49;;;;;;;2.58;2.38;;;;;;;10.77;100.00;98873.72;5095511;28;20110;-72
2023/04/19 03:10:14;;;;;;;3.22;2.17;;;;;;;10.74;100.00;98861.28;5114406;28;20058;-72
2023/04/19 03:12:40;;;;;;;5.53;2.70;;;;;;;10.75;99.66;98871.31;5095812;28;20040;-72
2023/04/19 03:15:07;;;;;;;3.42;2.50;;;;;;;10.82;100.00;98868.72;5096018;28;20451;-72
2023/04/19 03:17:32;;;;;;;5.00;2.22;;;;;;;10.82;99.59;98870.72;5084268;28;20523;-72
2023/04/19 03:19:58;;;;;;;2.50;2.25;;;;;;;10.79;99.11;98858.25;5093743;28;20059;-72
2023/04/19 03:22:23;;;;;;;3.65;2.67;;;;;;;10.79;98.92;98863.00;5094519;27;20062;-72
2023/04/19 03:24:49;;;;;;;3.50;2.05;;;;;;;10.81;98.99;98855.91;5103103;28;20035;-72
2023/04/19 03:27:14;;;;;;;3.75;2.35;;;;;;;10.84;98.41;98867.53;5114178;28;20023;-72
2023/04/19 03:29:40;;;;;;;2.28;1.98;;;;;;;10.89;98.20;98861.72;5114237;28;20023;-71
2023/04/19 03:32:06;;;;;;;3.22;2.25;;;;;;;10.95;98.13;98871.50;5113812;28;20012;-72
2023/04/19 03:34:31;;;;;;;5.95;2.95;;;;;;;10.90;97.87;98857.75;5092462;28;20030;-72
2023/04/19 03:36:57;;;;;;;3.10;2.50;;;;;;;10.94;97.82;98875.47;5094803;28;20394;-72
2023/04/19 03:39:22;;;;;;;3.75;2.75;;;;;;;10.91;97.46;98873.38;5098131;28;20024;-72
2023/04/19 03:41:48;;;;;;;8.00;3.50;;;;;;;10.97;97.03;98876.75;5100412;28;20019;-72
2023/04/19 03:44:13;;;;;;;5.55;3.50;;;;;;;10.95;96.55;98874.28;5113139;28;20110;-72
2023/04/19 03:46:39;;;;;;;3.38;2.42;;;;;;;10.99;96.52;98868.81;5113643;28;20012;-72
2023/04/19 03:49:04;;;;;;;5.22;2.85;;;;;;;10.87;96.70;98876.06;5113633;28;20406;-72
2023/04/19 03:51:30;;;;;;;2.67;2.05;;;;;;;10.85;96.27;98877.56;5101991;27;20394;-71
2023/04/19 03:53:56;;;;;;;6.15;2.92;;;;;;;10.86;96.14;98868.00;5102598;27;20039;-71
2023/04/19 03:56:21;;;;;;;6.20;2.75;;;;;;;10.85;95.71;98869.19;5094849;28;20019;-72
2023/04/19 03:58:50;;;;;;;5.00;2.35;;;;;;;10.92;95.92;98877.81;5111266;28;20068;-72
2023/04/19 04:01:19;;;;;;;9.88;2.75;;;;;;;10.94;96.25;98875.47;5097917;28;20119;-72
2023/04/19 04:03:44;;;;;;;10.43;5.07;;;;;;;10.99;96.32;98880.00;5084076;28;20099;-71
2023/04/19 04:06:10;;;;;;;8.15;5.93;;;;;;;11.07;96.19;98877.06;5073302;28;20158;-72
2023/04/19 04:08:35;;;;;;;6.70;5.47;;;;;;;11.10;95.75;98878.34;5095009;28;20102;-72
2023/04/19 04:11:01;;;;;;;7.13;5.57;;;;;;;11.06;95.83;98878.25;5108801;28;20024;-72
2023/04/19 04:13:26;;;;;;;9.55;5.80;;;;;;;11.00;96.02;98879.66;5090836;28;20027;-74
2023/04/19 04:15:52;;;;;;;6.43;5.25;;;;;;;11.09;96.28;98888.72;5090827;28;20031;-70
2023/04/19 04:18:17;;;;;;;5.10;4.40;;;;;;;11.17;95.69;98886.16;5069771;28;20089;-70
2023/04/19 04:20:43;;;;;;;5.38;3.20;;;;;;;11.15;95.21;98885.69;5087385;28;20607;-70
2023/04/19 04:23:09;;;;;;;3.60;2.78;;;;;;;11.09;95.24;98882.31;5070416;28;20020;-70
2023/04/19 04:25:36;;;;;;;3.90;3.20;;;;;;;10.93;96.10;98885.03;5107225;28;20030;-71
2023/04/19 04:28:05;;;;;;;4.65;3.10;;;;;;;10.93;95.28;98882.22;5085529;28;20024;-69
2023/04/19 04:30:31;;;;;;;6.95;3.80;;;;;;;10.86;95.92;98880.03;5089696;28;20027;-72
2023/04/19 04:32:59;;;;;;;5.78;3.72;;;;;;;11.03;96.23;98897.72;5091020;28;20488;-73
2023/04/19 04:35:27;;;;;;;9.50;4.43;;;;;;;11.04;96.16;98897.38;5103958;28;20024;-73
2023/04/19 04:37:53;;;;;;;7.55;4.32;;;;;;;10.95;95.96;98885.50;5105943;28;20111;-72
2023/04/19 04:40:19;;;;;;;8.38;4.97;;;;;;;10.97;96.02;98897.13;5105011;28;20028;-72
2023/04/19 04:42:44;;;;;;;11.57;5.93;;;;;;;10.82;96.63;98891.09;5085467;28;20418;-71
2023/04/19 04:45:10;;;;;;;7.70;5.45;;;;;;;10.82;96.63;98881.91;5109796;28;20786;-73
2023/04/19 04:47:37;;;;;;;8.95;5.72;;;;;;;10.78;97.16;98880.97;5091132;28;20026;-71
2023/04/19 04:50:03;;;;;;;7.32;5.25;;;;;;;10.84;97.57;98887.13;5109233;28;20106;-71
2023/04/19 04:52:28;;;;;;;3.75;3.38;;;;;;;10.86;97.72;98887.59;5104724;28;20028;-73
2023/04/19 04:54:54;;;;;;;4.55;3.72;;;;;;;10.78;97.92;98876.19;5093484;28;20035;-72
2023/04/19 04:57:20;;;;;;;4.35;3.55;;;;;;;10.86;97.16;98893.19;5097650;27;20051;-73
2023/04/19 04:59:47;;;;;;;4.22;3.40;;;;;;;10.79;97.06;98889.00;5074842;28;20063;-73
2023/04/19 05:02:13;;;;;;;3.80;3.45;;;;;;;10.78;97.38;98884.59;5076149;28;20499;-73
2023/04/19 05:04:39;;;;;;;6.30;3.67;;;;;;;10.89;97.14;98886.91;5081416;28;20032;-73
2023/04/19 05:07:05;;;;;;;5.25;2.58;;;;;;;10.97;96.17;98883.16;5081200;28;20023;-72
2023/04/19 05:09:30;;;;;;;4.90;2.90;;;;;;;10.97;96.59;98885.16;5107908;28;20032;-72
2023/04/19 05:11:56;;;;;;;8.25;4.22;;;;;;;10.88;97.78;98888.88;5090629;28;20043;-71
2023/04/19 05:14:21;;;;;;;13.43;7.55;;;;;;;10.70;96.87;98884.72;5085172;28;20414;-71
2023/04/19 05:16:47;;;;;;;13.30;8.15;;;;;;;10.76;98.13;98880.50;5088425;28;20034;-69
2023/04/19 05:19:12;;;;;;;7.03;5.40;;;;;;;10.95;98.17;98893.88;5096250;28;20452;-71
2023/04/19 05:21:38;;;;;;;13.48;5.32;;;;;;;10.76;98.28;98892.50;5080476;28;20039;-70
2023/04/19 05:24:04;;;;;;;5.50;4.63;;;;;;;10.71;98.19;98891.94;5108159;28;20028;-70
2023/04/19 05:26:29;;;;;;;9.05;5.20;;;;;;;10.81;99.04;98899.84;5105605;28;20465;-70
2023/04/19 05:28:55;;;;;;;14.05;5.40;;;;;;;10.84;98.73;98901.13;5077936;28;20035;-70
2023/04/19 05:31:21;;;;;;;15.82;8.30;;;;;;;10.85;98.45;98902.75;5085508;28;20032;-70
2023/04/19 05:33:46;;;;;;;9.85;6.90;;;;;;;10.79;99.51;98905.78;5089266;28;20483;-70
2023/04/19 05:36:12;;;;;;;12.48;5.97;;;;;;;10.86;99.68;98905.22;5100302;28;20032;-67
2023/04/19 05:38:37;;;;;;;16.67;7.03;;;;;;;11.02;98.65;98899.72;5099729;28;20023;-68
2023/04/19 05:41:04;;;;;;;12.45;7.32;;;;;;;11.15;97.47;98903.28;5104902;28;20032;-67
2023/04/19 05:43:29;;;;;;;12.80;8.57;;;;;;;11.12;98.04;98903.19;5089026;28;20020;-69
2023/04/19 05:45:55;;;;;;;13.23;8.18;;;;;;;11.08;98.08;98900.28;5072777;28;20031;-70
2023/04/19 05:48:21;;;;;;;15.48;6.22;;;;;;;11.02;97.59;98894.13;5082220;28;20414;-68
2023/04/19 05:50:46;;;;;;;9.07;6.10;;;;;;;10.95;98.15;98893.88;5070894;28;20030;-67
2023/04/19 05:53:12;;;;;;;18.42;9.43;;;;;;;11.05;97.95;98890.59;5070577;28;20028;-68
2023/04/19 05:55:37;;;;;;;22.25;12.35;;;;;;;11.11;97.81;98890.38;5104345;28;20035;-66
2023/04/19 05:58:03;;;;;;;21.98;11.30;;;;;;;11.07;97.68;98890.25;5098555;28;20080;-67
2023/04/19 06:00:28;;;;;;;22.27;11.80;;;;;;;10.96;97.02;98884.31;5106180;28;20039;-68
2023/04/19 06:02:54;;;;;;;23.60;10.40;;;;;;;11.03;96.13;98898.53;5108518;28;20090;-68
2023/04/19 06:05:19;;;;;;;19.25;9.60;;;;;;;10.91;96.11;98878.97;5089271;28;20114;-68
2023/04/19 06:07:45;;;;;;;13.88;7.07;;;;;;;11.02;95.26;98899.72;5085537;28;20067;-67
2023/04/19 06:10:10;;;;;;;13.35;6.57;;;;;;;10.94;95.71;98892.25;5092260;28;20475;-69
2023/04/19 06:12:36;;;;;;;10.73;7.10;;;;;;;10.94;96.01;98895.06;5092189;28;20047;-69
2023/04/19 06:15:01;;;;;;;13.32;7.45;;;;;;;10.97;95.82;98897.13;5091195;28;20417;-68
2023/04/19 06:17:27;;;;;;;11.27;6.32;;;;;;;10.98;95.96;98898.78;5073413;28;20042;-70
2023/04/19 06:19:53;;;;;;;10.68;6.20;;;;;;;10.93;96.69;98887.81;5086614;28;20036;-72
2023/04/19 06:22:19;;;;;;;14.70;7.88;;;;;;;11.12;96.70;98903.19;5105147;27;20024;-70
2023/04/19 06:24:48;;;;;;;13.88;7.07;;;;;;;11.16;97.25;98904.94;5091830;28;20402;-70
2023/04/19 06:27:15;;;;;;;13.68;7.50;;;;;;;11.35;97.68;98901.50;5109084;28;20032;-74
2023/04/19 06:29:41;;;;;;;15.77;8.23;;;;;;;11.28;95.26;98890.09;5106425;28;20084;-72
2023/04/19 06:32:08;;;;;;;13.80;7.93;;;;;;;11.35;95.29;98900.69;5095772;28;20448;-73
2023/04/19 06:34:33;;;;;;;15.80;7.75;;;;;;;11.56;95.03;98896.91;5112604;28;20044;-73
2023/04/19 06:36:58;;;;;;;25.80;9.48;;;;;;;11.71;93.36;98898.94;5091483;28;20106;-72
2023/04/19 06:39:24;;;;;;;22.50;9.80;;;;;;;11.81;93.62;98897.59;5094265;28;20060;-73
2023/04/19 06:41:49;;;;;;;12.82;7.95;;;;;;;11.92;93.06;98900.72;5091118;28;20027;-73
2023/04/19 06:44:15;;;;;;;13.00;8.07;;;;;;;12.05;91.30;98909.88;5095571;28;20452;-72
2023/04/19 06:46:40;;;;;;;12.48;8.18;;;;;;;12.10;90.54;98909.63;5081176;28;20102;-74
2023/04/19 06:49:06;;;;;;;11.63;7.43;;;;;;;11.92;91.90;98907.13;5113779;28;20081;-73
2023/04/19 06:51:32;;;;;;;12.23;7.70;;;;;;;11.98;91.45;98910.47;5112449;28;20027;-73
2023/04/19 06:53:58;;;;;;;10.43;6.95;;;;;;;12.07;91.83;98913.16;5107461;28;20027;-71
2023/04/19 06:56:45;;;;;;;11.25;6.22;;;;;;;12.16;90.04;98916.59;5110543;28;20049;-71
2023/04/19 06:59:16;;;;;;;8.18;5.88;;;;;;;12.18;89.44;98925.47;5095072;28;20056;-68
2023/04/19 07:01:43;;;;;;;10.18;5.40;;;;;;;12.18;89.67;98919.84;5103004;28;20032;-72
2023/04/19 07:04:09;;;;;;;339.17;67.53;;;;;;;12.38;89.37;98925.59;5094670;28;20052;-72
2023/04/19 07:06:35;;;;;;;6.75;5.07;;;;;;;12.28;87.82;98914.91;5092559;28;20494;-71
2023/04/19 07:09:01;;;;;;;8.65;4.53;;;;;;;12.47;88.48;98926.22;5113747;28;20037;-71
2023/04/19 07:11:27;;;;;;;11.18;4.70;;;;;;;12.38;85.93;98922.78;5095184;28;20051;-70
2023/04/19 07:13:52;;;;;;;258.08;189.13;;;;;;;12.47;87.52;98919.78;5094787;28;20430;-71
2023/04/19 07:16:17;;;;;;;101.05;70.00;;;;;;;12.57;88.16;98924.88;5107761;28;20035;-68
2023/04/19 07:18:43;;;;;;;14.68;11.23;;;;;;;12.62;85.48;98920.97;5093491;28;20168;-70
2023/04/19 07:21:09;;;;;;;6.20;4.30;;;;;;;12.57;83.81;98924.06;5093067;28;20110;-70
2023/04/19 07:23:34;;;;;;;6.95;5.18;;;;;;;12.52;85.80;98919.53;5111640;28;20028;-69
2023/04/19 07:26:00;;;;;;;525.08;148.25;;;;;;;12.72;86.26;98914.81;5094895;28;20549;-70
2023/04/19 07:28:28;;;;;;;242.02;49.75;;;;;;;12.88;87.00;98922.41;5107904;28;20035;-73
2023/04/19 07:30:53;;;;;;;19.65;5.95;;;;;;;12.83;84.42;98925.50;5086907;28;20421;-69
2023/04/19 07:33:23;;;;;;;6.00;4.63;;;;;;;12.80;83.92;98932.63;5111666;28;20085;-71
2023/04/19 07:35:49;;;;;;;31.65;18.20;;;;;;;12.90;86.88;98920.03;5094384;28;20027;-68
2023/04/19 07:38:14;;;;;;;112.72;17.48;;;;;;;12.92;86.62;98929.72;5108841;28;20031;-72
2023/04/19 07:40:40;;;;;;;5.75;4.53;;;;;;;12.91;84.44;98921.66;5093422;28;20031;-71
2023/04/19 07:43:05;;;;;;;7.28;4.88;;;;;;;13.01;83.72;98918.31;5112899;28;20032;-71
2023/04/19 07:45:32;;;;;;;10.27;4.00;;;;;;;12.99;82.53;98919.88;5112575;28;20395;-70
2023/04/19 07:47:57;;;;;;;8.75;4.10;;;;;;;13.03;81.11;98927.19;5110291;28;20020;-72
2023/04/19 07:50:26;;;;;;;5.07;3.60;;;;;;;13.00;82.15;98924.31;5111620;28;20422;-68
2023/04/19 07:52:52;;;;;;;4.53;3.33;;;;;;;12.99;82.57;98920.66;5094458;28;20384;-72
2023/04/19 07:55:18;;;;;;;8.23;5.45;;;;;;;13.13;83.58;98925.81;5092994;28;20046;-69
2023/04/19 07:57:47;;;;;;;86.97;13.18;;;;;;;13.27;83.83;98921.69;5112192;28;20508;-71
2023/04/19 08:00:14;;;;;;;3.97;3.00;;;;;;;13.42;81.94;98923.63;5094029;28;20410;-70
2023/04/19 08:02:42;;;;;;;10.75;5.00;;;;;;;13.45;79.94;98928.56;5110822;28;20091;-73
2023/04/19 08:05:08;;;;;;;9.80;4.47;;;;;;;13.47;80.78;98931.00;5100350;28;20035;-72
2023/04/19 08:07:34;;;;;;;522.13;88.13;;;;;;;13.77;80.99;98933.25;5085395;28;20092;-72
2023/04/19 08:09:59;;;;;;;11.68;6.07;;;;;;;13.90;79.14;98928.25;5095195;28;20023;-71
2023/04/19 08:12:25;;;;;;;95.90;16.30;;;;;;;13.76;76.86;98945.66;5085361;28;20537;-72
2023/04/19 08:14:50;;;;;;;9.93;4.95;;;;;;;13.85;77.89;98934.19;5093591;28;20035;-70
2023/04/19 08:17:20;;;;;;;50.67;12.77;;;;;;;13.58;78.30;98928.44;5082329;28;20100;-71
2023/04/19 08:19:46;;;;;;;9.20;4.23;;;;;;;13.87;77.88;98932.63;5085523;28;20067;-70
2023/04/19 08:22:11;;;;;;;227.73;44.42;;;;;;;14.06;78.39;98933.81;5096978;28;20080;-73
2023/04/19 08:24:37;;;;;;;9.52;4.63;;;;;;;13.88;78.29;98928.66;5097952;28;20417;-70
2023/04/19 08:27:02;;;;;;;4.45;3.95;;;;;;;14.11;76.76;98935.50;5101778;28;20109;-72
2023/04/19 08:29:28;;;;;;;144.00;92.95;;;;;;;14.31;76.49;98937.09;5105751;28;20029;-71
2023/04/19 08:31:56;;;;;;;71.93;52.63;;;;;;;14.31;76.01;98931.47;5100959;28;20032;-71
2023/04/19 08:34:21;;;;;;;392.73;283.25;;;;;;;14.49;76.11;98925.34;5085221;28;20063;-74
2023/04/19 08:36:47;;;;;;;156.18;113.70;;;;;;;14.71;76.50;98923.69;5073592;28;20070;-73
2023/04/19 08:39:13;;;;;;;79.25;59.20;;;;;;;14.98;73.54;98914.50;5073562;28;20035;-73
2023/04/19 08:41:39;;;;;;;225.07;163.63;;;;;;;15.42;73.80;98919.59;5091792;28;20092;-72
2023/04/19 08:44:06;;;;;;;108.30;82.88;;;;;;;15.42;71.51;98911.13;5091747;28;20024;-73
2023/04/19 08:46:31;;;;;;;5.55;4.75;;;;;;;15.40;70.66;98907.06;5092952;28;20031;-73
2023/04/19 08:48:58;;;;;;;29.52;18.48;;;;;;;15.54;68.22;98895.19;5109256;28;20023;-74
2023/04/19 08:51:25;;;;;;;62.00;35.30;;;;;;;15.81;69.15;98895.09;5111765;28;20493;-74
2023/04/19 08:53:51;;;;;;;5.13;3.97;;;;;;;15.84;69.78;98906.44;5093723;28;20422;-71
2023/04/19 08:56:19;;;;;;;111.97;90.53;;;;;;;15.35;71.49;98901.78;5092506;28;20501;-73
2023/04/19 08:58:44;;;;;;;279.70;222.80;;;;;;;15.55;69.81;98908.88;5111755;28;20106;-72
2023/04/19 09:01:11;;;;;;;80.25;60.70;;;;;;;16.08;68.06;98909.13;5111826;28;20030;-72
2023/04/19 09:03:43;;;;;;;15.50;6.93;;;;;;;16.02;69.17;98893.75;5100924;28;20506;-73
2023/04/19 09:06:08;;;;;;;75.45;63.00;;;;;;;16.04;66.71;98897.78;5109643;28;20023;-72
2023/04/19 09:08:34;;;;;;;144.23;119.38;;;;;;;16.21;68.52;98881.47;5111505;28;20027;-75
2023/04/19 09:11:00;;;;;;;167.63;114.22;;;;;;;16.83;66.76;98892.09;5092753;28;20028;-73
2023/04/19 09:13:29;;;;;;;109.05;61.30;;;;;;;17.45;65.50;98886.84;5097646;28;20032;-73
2023/04/19 09:15:59;;;;;;;13.98;6.93;;;;;;;17.63;63.97;98886.13;5094107;28;20020;-73
2023/04/19 09:18:25;;;;;;;19.80;6.88;;;;;;;17.63;63.24;98883.31;5094622;28;20015;-72
2023/04/19 09:20:57;;;;;;;36.50;8.75;;;;;;;17.75;65.01;98880.13;5106125;28;20118;-74
2023/04/19 09:23:25;;;;;;;3.63;2.70;;;;;;;17.60;62.01;98887.72;5111278;28;20402;-73
2023/04/19 09:26:05;;;;;;;256.75;55.10;;;;;;;17.50;62.02;98894.97;5093228;28;20030;-74
2023/04/19 09:28:31;;;;;;;;;;;;;;;17.08;60.32;98883.00;5111836;28;20063;-73
2023/04/19 09:30:57;;;;;;;41.17;9.35;;;;;;;17.22;62.73;98887.94;5082313;28;19912;-74
2023/04/19 09:33:34;;;;;;;124.82;17.25;;;;;;;17.05;60.93;98883.00;5072536;28;20101;-74
2023/04/19 09:36:00;;;;;;;94.80;14.02;;;;;;;16.96;58.76;98886.13;5090878;28;20099;-74
2023/04/19 09:38:26;;;;;;;326.75;51.60;;;;;;;17.37;61.48;98877.53;5122540;28;20024;-74
2023/04/19 09:40:52;;;;;;;7.03;3.30;;;;;;;17.46;61.10;98876.34;5112063;28;20579;-70
2023/04/19 09:43:24;;;;;;;2.97;2.67;;;;;;;17.61;59.56;98877.22;5097074;28;20106;-73
2023/04/19 09:45:50;;;;;;;3.42;2.45;;;;;;;17.48;58.65;98883.22;5108903;28;20075;-73
2023/04/19 09:48:16;;;;;;;2.08;1.88;;;;;;;17.34;58.22;98872.66;5107544;28;20383;-72
2023/04/19 09:50:53;;;;;;;4.03;2.72;;;;;;;17.44;60.92;98873.13;5100485;28;20031;-72
2023/04/19 09:53:20;;;;;;;6.82;2.13;;;;;;;17.94;59.68;98872.47;5095283;27;20028;-74
2023/04/19 09:55:48;;;;;;;4.25;2.05;;;;;;;17.86;55.92;98865.19;5099938;28;20039;-72
2023/04/19 09:58:15;;;;;;;2.10;1.90;;;;;;;17.05;55.75;98866.03;5104968;28;20107;-72
2023/04/19 10:00:43;;;;;;;4.32;1.70;;;;;;;16.92;55.94;98869.16;5101474;28;20066;-72
2023/04/19 10:03:09;;;;;;;5.30;1.73;;;;;;;17.03;55.40;98857.16;5109624;28;20386;-74
2023/04/19 10:05:40;;;;;;;5.30;2.90;;;;;;;17.50;55.10;98852.56;5100345;28;20024;-75
2023/04/19 10:08:10;;;;;;;2.45;2.22;;;;;;;17.50;55.36;98863.88;5094580;28;20082;-71
2023/04/19 10:10:36;;;;;;;3.45;2.20;;;;;;;17.29;56.98;98846.78;5094463;27;20027;-71
2023/04/19 10:13:05;;;;;;;15.00;8.85;;;;;;;17.38;55.86;98850.88;5089532;28;20084;-70
2023/04/19 10:15:33;;;;;;;22.10;12.30;;;;;;;18.05;53.15;98850.72;5078125;28;20024;-69
2023/04/19 10:17:59;;;;;;;72.85;56.20;;;;;;;18.41;51.61;98841.47;5100338;28;20031;-69
2023/04/19 10:20:31;;;;;;;1744.03;848.53;;;;;;;19.00;50.22;98843.03;5093684;28;20375;-70
2023/04/19 10:22:57;;;;;;;468.75;389.67;;;;;;;19.32;50.06;98833.66;5097023;28;20015;-71
2023/04/19 10:25:29;;;;;;;16.05;13.50;;;;;;;19.47;47.78;98840.09;5081425;28;20016;-72
2023/04/19 10:27:57;;;;;;;3.55;1.80;;;;;;;19.00;46.52;98839.41;5098715;28;20038;-71
2023/04/19 10:30:25;;;;;;;4.85;2.17;;;;;;;19.15;49.27;98837.38;5077396;28;20490;-72
2023/04/19 10:32:57;;;;;;;3.70;2.03;;;;;;;19.48;52.54;98840.88;5090634;28;20414;-73
2023/04/19 10:35:36;;;;;;;1.65;1.55;;;;;;;19.59;47.27;98832.34;5094703;28;20024;-74
2023/04/19 10:38:05;;;;;;;5.05;2.42;;;;;;;19.70;49.41;98833.09;5098321;28;20459;-75
2023/04/19 10:40:49;;;;;;;4.65;1.88;;;;;;;19.70;48.98;98832.28;5096881;28;20182;-73
2023/04/19 10:43:18;;;;;;;2.00;1.75;;;;;;;19.64;45.19;98812.03;5100517;28;20028;-73
2023/04/19 10:45:45;;;;;;;2.08;1.25;;;;;;;19.95;44.43;98820.84;5102825;27;20405;-74
2023/04/19 10:48:29;;;;;;;2.15;1.70;;;;;;;20.25;43.41;98822.25;5104180;28;20047;-73
2023/04/19 10:51:10;;;;;;;2.70;1.90;;;;;;;20.54;43.96;98819.19;5092032;28;20114;-74
2023/04/19 10:53:47;;;;;;;1.40;1.30;;;;;;;19.89;44.33;98819.63;5094452;28;20031;-73
2023/04/19 10:56:14;;;;;;;2.22;1.88;;;;;;;20.06;47.05;98813.06;5106091;28;20030;-73
2023/04/19 10:59:01;;;;;;;1.98;1.60;;;;;;;20.58;45.00;98817.09;5078878;28;20498;-73
2023/04/19 11:01:44;;;;;;;1.63;1.13;;;;;;;19.97;42.19;98809.06;5089486;27;20111;-73
2023/04/19 11:04:14;;;;;;;2.60;1.77;;;;;;;18.96;46.19;98811.06;5100146;28;20053;-73
2023/04/19 11:07:04;;;;;;;2.15;1.70;;;;;;;18.61;47.75;98819.22;5093405;28;20481;-73
2023/04/19 11:09:37;;;;;;;3.47;1.70;;;;;;;18.73;47.44;98817.97;5091727;28;20127;-73
2023/04/19 11:12:22;;;;;;;6.30;2.80;;;;;;;17.98;51.77;98804.59;5081318;28;20071;-73
2023/04/19 11:14:56;;;;;;;4.65;2.00;;;;;;;17.58;51.06;98812.97;5103603;28;20027;-73
2023/04/19 11:17:30;;;;;;;3.20;2.13;;;;;;;18.08;50.38;98801.81;5084296;28;20031;-74
2023/04/19 11:20:00;;;;;;;2.65;2.40;;;;;;;18.63;50.38;98802.63;5105722;28;20024;-73
2023/04/19 11:22:43;;;;;;;2.85;1.92;;;;;;;19.09;49.70;98800.13;5077460;28;20551;-75
2023/04/19 11:25:20;;;;;;;7.82;2.53;;;;;;;19.57;49.50;98797.91;5111909;28;20032;-72